createdAt,value
2023-01-13T00:00:20.360Z,5.07
2023-01-13T00:02:51.132Z,5.53
2023-01-13T00:05:22.076Z,5.43
2023-01-13T00:07:52.981Z,5.38
2023-01-13T00:10:23.886Z,5.43
2023-01-13T00:12:54.792Z,5.45
2023-01-13T00:15:25.420Z,5.43
2023-01-13T00:17:57.063Z,5.07
2023-01-13T00:20:27.798Z,5.20
2023-01-13T00:23:00.261Z,5.05
2023-01-13T00:25:30.910Z,5.22
2023-01-13T00:28:01.636Z,4.88
2023-01-13T00:30:32.551Z,6.13
2023-01-13T00:33:03.382Z,4.82
2023-01-13T00:35:34.016Z,5.28
2023-01-13T00:38:04.780Z,5.05
2023-01-13T00:40:35.542Z,5.07
2023-01-13T00:43:24.348Z,5.15
2023-01-13T00:45:56.658Z,5.45
2023-01-13T00:48:28.320Z,4.80
2023-01-13T00:51:00.823Z,5.50
2023-01-13T00:53:35.587Z,5.40
2023-01-13T00:56:16.718Z,5.13
2023-01-13T00:59:08.839Z,4.55
2023-01-13T01:01:39.817Z,5.10
2023-01-13T01:04:10.719Z,5.18
2023-01-13T01:06:41.569Z,5.25
2023-01-13T01:09:16.658Z,4.97
2023-01-13T01:11:47.533Z,5.25
2023-01-13T01:14:18.311Z,4.95
2023-01-13T01:17:10.180Z,5.18
2023-01-13T01:20:00.493Z,5.35
2023-01-13T01:22:31.477Z,4.60
2023-01-13T01:25:02.389Z,5.75
2023-01-13T01:27:33.244Z,5.18
2023-01-13T01:30:03.922Z,4.88
2023-01-13T01:32:36.906Z,5.05
2023-01-13T01:35:07.991Z,4.72
2023-01-13T01:37:38.939Z,5.03
2023-01-13T01:40:10.711Z,5.22
2023-01-13T01:42:59.560Z,4.95
2023-01-13T01:45:32.726Z,4.88
2023-01-13T01:48:06.207Z,4.70
2023-01-13T01:50:38.095Z,4.30
2023-01-13T01:53:15.838Z,4.68
2023-01-13T01:55:47.819Z,5.00
2023-01-13T01:58:26.232Z,5.00
2023-01-13T02:03:47.464Z,4.70
2023-01-13T02:06:23.160Z,4.55
2023-01-13T02:08:55.885Z,5.18
2023-01-13T02:11:53.051Z,4.82
2023-01-13T02:14:27.238Z,4.22
2023-01-13T02:17:00.715Z,4.63
2023-01-13T02:20:09.308Z,5.05
2023-01-13T02:22:57.769Z,4.65
2023-01-13T02:25:57.164Z,4.68
2023-01-13T02:29:02.530Z,4.65
2023-01-13T02:31:43.771Z,4.45
2023-01-13T02:34:26.835Z,4.85
2023-01-13T02:37:15.363Z,4.57
2023-01-13T02:40:02.703Z,4.22
2023-01-13T02:43:01.082Z,4.47
2023-01-13T02:45:43.023Z,4.78
2023-01-13T02:48:16.149Z,5.32
2023-01-13T02:54:25.250Z,4.78
2023-01-13T02:56:58.693Z,4.90
2023-01-13T02:59:32.233Z,4.85
2023-01-13T03:02:25.035Z,5.10
2023-01-13T03:05:01.525Z,4.75
2023-01-13T03:08:05.494Z,5.00
2023-01-13T03:10:57.376Z,4.40
2023-01-13T03:13:29.718Z,4.47
2023-01-13T03:16:24.393Z,4.72
2023-01-13T03:19:44.766Z,4.50
2023-01-13T03:22:33.764Z,4.78
2023-01-13T03:25:32.524Z,4.60
2023-01-13T03:28:08.919Z,4.72
2023-01-13T03:31:08.283Z,4.90
2023-01-13T03:33:57.958Z,5.07
2023-01-13T03:36:32.772Z,4.90
2023-01-13T03:39:26.636Z,4.80
2023-01-13T03:42:05.910Z,5.13
2023-01-13T03:44:51.468Z,5.57
2023-01-13T03:47:36.419Z,4.20
2023-01-13T03:50:49.307Z,4.57
2023-01-13T03:53:34.586Z,4.53
2023-01-13T03:56:51.074Z,5.05
2023-01-13T03:59:33.210Z,4.80
2023-01-13T04:02:18.532Z,4.57
2023-01-13T04:04:52.509Z,5.15
2023-01-13T04:10:30.813Z,4.82
2023-01-13T04:13:16.006Z,5.20
2023-01-13T04:15:49.011Z,4.63
2023-01-13T04:18:26.913Z,5.05
2023-01-13T04:21:10.688Z,4.55
2023-01-13T04:23:52.614Z,4.13
2023-01-13T04:26:31.752Z,4.57
2023-01-13T04:29:15.632Z,4.65
2023-01-13T04:31:59.752Z,5.30
2023-01-13T04:34:41.426Z,4.47
2023-01-13T04:37:36.634Z,4.57
2023-01-13T04:43:05.001Z,4.40
2023-01-13T04:48:54.498Z,4.20
2023-01-13T04:51:36.253Z,4.30
2023-01-13T04:54:13.803Z,4.65
2023-01-13T04:56:45.319Z,4.88
2023-01-13T04:59:16.831Z,4.60
2023-01-13T05:01:47.927Z,4.35
2023-01-13T05:04:19.049Z,4.65
2023-01-13T05:06:50.199Z,4.57
2023-01-13T05:09:23.016Z,4.85
2023-01-13T05:12:12.465Z,4.93
2023-01-13T05:15:01.664Z,4.15
2023-01-13T05:17:34.505Z,4.40
2023-01-13T05:20:10.690Z,4.68
2023-01-13T05:23:11.336Z,4.13
2023-01-13T05:25:54.239Z,4.88
2023-01-13T05:28:29.511Z,4.70
2023-01-13T05:31:01.716Z,4.22
2023-01-13T05:33:34.974Z,4.35
2023-01-13T05:36:08.187Z,4.82
2023-01-13T05:38:39.461Z,4.20
2023-01-13T05:41:30.964Z,4.18
2023-01-13T05:44:02.054Z,4.60
2023-01-13T05:46:33.269Z,4.32
2023-01-13T05:49:04.488Z,4.50
2023-01-13T05:51:35.651Z,4.43
2023-01-13T05:54:07.021Z,4.80
2023-01-13T05:59:22.736Z,4.22
2023-01-13T06:01:53.766Z,4.13
2023-01-13T06:04:25.058Z,4.50
2023-01-13T06:07:20.693Z,4.50
2023-01-13T06:09:51.965Z,4.60
2023-01-13T06:12:27.570Z,4.07
2023-01-13T06:14:59.326Z,4.00
2023-01-13T06:17:30.543Z,4.68
2023-01-13T06:20:03.801Z,4.50
2023-01-13T06:22:37.127Z,4.38
2023-01-13T06:25:32.611Z,4.45
2023-01-13T06:28:06.020Z,4.03
2023-01-13T06:31:04.272Z,4.35
2023-01-13T06:33:42.104Z,3.85
2023-01-13T06:36:21.210Z,4.53
2023-01-13T06:38:56.883Z,4.68
2023-01-13T06:41:47.874Z,4.40
2023-01-13T06:44:19.917Z,3.97
2023-01-13T06:46:51.143Z,4.15
2023-01-13T06:49:22.389Z,4.18
2023-01-13T06:51:55.783Z,4.18
2023-01-13T06:54:27.827Z,3.90
2023-01-13T06:56:58.877Z,3.83
2023-01-13T06:59:30.610Z,4.03
2023-01-13T07:02:05.629Z,4.13
2023-01-13T07:05:13.205Z,3.92
2023-01-13T07:08:16.103Z,4.30
2023-01-13T07:10:54.509Z,4.00
2023-01-13T07:13:45.039Z,4.00
2023-01-13T07:16:16.139Z,3.47
2023-01-13T07:21:31.116Z,4.45
2023-01-13T07:24:24.023Z,4.15
2023-01-13T07:26:56.439Z,4.30
2023-01-13T07:29:27.298Z,3.85
2023-01-13T07:31:59.400Z,3.70
2023-01-13T07:34:33.773Z,3.90
2023-01-13T07:37:05.148Z,4.15
2023-01-13T07:39:56.939Z,4.00
2023-01-13T07:42:46.395Z,3.65
2023-01-13T07:48:00.961Z,3.65
2023-01-13T07:50:32.110Z,4.50
2023-01-13T07:53:04.177Z,4.05
2023-01-13T07:55:35.176Z,4.20
2023-01-13T07:58:06.193Z,4.38
2023-01-13T08:00:41.074Z,4.32
2023-01-13T08:03:22.241Z,4.28
2023-01-13T08:05:53.345Z,3.67
2023-01-13T08:08:24.722Z,4.13
2023-01-13T08:13:39.995Z,4.07
2023-01-13T08:16:14.275Z,3.97
2023-01-13T08:18:45.801Z,3.65
2023-01-13T08:24:22.604Z,3.63
2023-01-13T08:26:53.631Z,4.00
2023-01-13T08:29:24.732Z,3.67
2023-01-13T08:32:15.448Z,3.67
2023-01-13T08:34:46.996Z,3.58
2023-01-13T08:40:19.863Z,4.18
2023-01-13T08:42:51.976Z,4.40
2023-01-13T08:45:23.266Z,4.28
2023-01-13T08:47:58.551Z,3.60
2023-01-13T08:50:31.725Z,3.80
2023-01-13T08:53:03.522Z,3.53
2023-01-13T08:55:34.603Z,3.72
2023-01-13T08:58:15.449Z,3.40
2023-01-13T09:03:31.987Z,3.50
2023-01-13T09:06:03.069Z,3.53
2023-01-13T09:08:34.528Z,3.45
2023-01-13T09:11:25.519Z,3.30
2023-01-13T09:14:03.468Z,3.97
2023-01-13T09:16:35.212Z,4.13
2023-01-13T09:19:07.169Z,3.65
2023-01-13T09:21:38.371Z,3.88
2023-01-13T09:24:11.024Z,4.18
2023-01-13T09:26:42.069Z,4.05
2023-01-13T09:29:13.357Z,3.95
2023-01-13T09:31:44.891Z,3.80
2023-01-13T09:34:55.949Z,4.28
2023-01-13T09:37:37.241Z,4.15
2023-01-13T09:40:29.319Z,4.28
2023-01-13T09:43:40.442Z,4.20
2023-01-13T09:46:40.199Z,4.70
2023-01-13T09:49:24.412Z,4.30
2023-01-13T09:55:27.463Z,3.65
2023-01-13T09:57:58.561Z,4.43
2023-01-13T10:00:43.773Z,3.88
2023-01-13T10:03:30.686Z,4.22
2023-01-13T10:06:06.144Z,4.20
2023-01-13T10:08:46.672Z,4.32
2023-01-13T10:11:37.546Z,4.07
2023-01-13T10:14:23.496Z,4.07
2023-01-13T10:17:26.483Z,4.40
2023-01-13T10:20:35.660Z,3.78
2023-01-13T10:23:22.530Z,4.15
2023-01-13T10:26:06.713Z,3.88
2023-01-13T10:28:38.014Z,4.32
2023-01-13T10:31:16.398Z,4.05
2023-01-13T10:33:47.610Z,4.07
2023-01-13T10:36:25.415Z,4.60
2023-01-13T10:39:19.203Z,4.00
2023-01-13T10:41:50.410Z,4.10
2023-01-13T10:44:22.391Z,4.10
2023-01-13T10:46:57.313Z,3.72
2023-01-13T10:49:40.981Z,3.60
2023-01-13T10:52:33.015Z,3.50
2023-01-13T10:55:04.764Z,4.22
2023-01-13T10:57:39.003Z,3.80
2023-01-13T11:00:32.143Z,4.50
2023-01-13T11:03:21.932Z,3.67
2023-01-13T11:06:04.053Z,3.88
2023-01-13T11:08:48.512Z,4.00
2023-01-13T11:11:46.484Z,3.67
2023-01-13T11:14:40.050Z,3.92
2023-01-13T11:17:26.003Z,4.15
2023-01-13T11:20:19.323Z,3.88
2023-01-13T11:23:26.657Z,3.80
2023-01-13T11:26:07.804Z,3.60
2023-01-13T11:28:48.638Z,3.92
2023-01-13T11:31:39.421Z,4.30
2023-01-13T11:34:31.388Z,3.42
2023-01-13T11:37:09.382Z,3.70
2023-01-13T11:40:10.182Z,3.83
2023-01-13T11:42:51.087Z,4.03
2023-01-13T11:45:45.572Z,3.90
2023-01-13T11:48:24.599Z,3.55
2023-01-13T11:51:01.659Z,3.97
2023-01-13T11:54:09.229Z,3.53
2023-01-13T11:57:18.588Z,3.63
2023-01-13T12:00:33.989Z,3.63
2023-01-13T12:06:44.353Z,3.90
2023-01-13T12:09:42.732Z,3.67
2023-01-13T12:12:28.888Z,3.47
2023-01-13T12:15:21.435Z,3.67
2023-01-13T12:18:34.418Z,3.50
2023-01-13T12:21:27.066Z,3.83
2023-01-13T12:24:06.580Z,3.50
2023-01-13T12:26:57.461Z,3.92
2023-01-13T12:29:38.645Z,3.85
2023-01-13T12:32:16.643Z,3.83
2023-01-13T12:35:18.825Z,3.90
2023-01-13T12:38:16.428Z,3.30
2023-01-13T12:41:02.872Z,3.45
2023-01-13T12:44:14.359Z,3.47
2023-01-13T12:46:56.436Z,3.65
2023-01-13T12:49:38.212Z,3.45
2023-01-13T12:52:25.929Z,3.33
2023-01-13T12:54:59.856Z,3.67
2023-01-13T12:57:35.901Z,3.67
2023-01-13T13:00:06.992Z,3.92
2023-01-13T13:02:40.961Z,4.20
2023-01-13T13:05:28.662Z,3.85
2023-01-13T13:08:16.814Z,3.75
2023-01-13T13:11:09.500Z,3.80
2023-01-13T13:13:55.339Z,4.30
2023-01-13T13:16:32.579Z,3.53
2023-01-13T13:19:23.820Z,3.60
2023-01-13T13:22:18.465Z,3.75
2023-01-13T13:25:01.482Z,3.75
2023-01-13T13:28:15.987Z,3.80
2023-01-13T13:31:12.955Z,3.73
2023-01-13T13:33:51.763Z,3.35
2023-01-13T13:36:42.283Z,3.85
2023-01-13T13:39:50.011Z,3.80
2023-01-13T13:43:06.514Z,3.75
2023-01-13T13:45:56.361Z,3.55
2023-01-13T13:48:35.181Z,3.50
2023-01-13T13:51:40.080Z,3.40
2023-01-13T13:56:52.374Z,4.25
2023-01-13T13:59:35.281Z,3.75
2023-01-13T14:02:22.820Z,3.92
2023-01-13T14:05:08.241Z,3.53
2023-01-13T14:10:42.434Z,3.53
2023-01-13T14:13:33.434Z,3.80
2023-01-13T14:16:15.699Z,3.40
2023-01-13T14:18:50.774Z,3.53
2023-01-13T14:21:24.529Z,3.38
2023-01-13T14:24:02.750Z,3.67
2023-01-13T14:26:34.837Z,3.53
2023-01-13T14:29:07.785Z,3.83
2023-01-13T14:34:34.543Z,3.85
2023-01-13T14:39:43.289Z,3.47
2023-01-13T14:42:19.477Z,3.78
2023-01-13T14:44:56.137Z,3.10
2023-01-13T14:50:29.586Z,3.70
2023-01-13T14:53:13.531Z,3.55
2023-01-13T14:55:53.678Z,3.47
2023-01-13T14:58:31.469Z,3.28
2023-01-13T15:01:39.178Z,3.58
2023-01-13T15:04:38.939Z,3.70
2023-01-13T15:07:26.577Z,3.58
2023-01-13T15:10:22.279Z,4.15
2023-01-13T15:12:56.159Z,3.38
2023-01-13T15:18:16.905Z,3.72
2023-01-13T15:20:52.593Z,3.45
2023-01-13T15:23:24.350Z,3.88
2023-01-13T15:25:55.547Z,3.83
2023-01-13T15:28:31.776Z,3.58
2023-01-13T15:31:08.076Z,3.90
2023-01-13T15:33:49.832Z,3.80
2023-01-13T15:36:33.779Z,3.50
2023-01-13T15:39:06.039Z,3.30
2023-01-13T15:42:19.766Z,3.33
2023-01-13T15:50:28.472Z,3.65
2023-01-13T15:55:54.958Z,3.55
2023-01-13T15:58:31.813Z,3.85
2023-01-13T16:01:05.304Z,3.42
2023-01-13T16:03:38.078Z,3.63
2023-01-13T16:06:42.766Z,3.28
2023-01-13T16:09:19.551Z,3.28
2023-01-13T16:12:14.587Z,3.55
2023-01-13T16:14:56.048Z,3.80
2023-01-13T16:17:55.087Z,3.63
2023-01-13T16:20:39.908Z,3.10
2023-01-13T16:23:12.629Z,3.28
2023-01-13T16:25:49.999Z,3.78
2023-01-13T16:28:25.672Z,3.70
2023-01-13T16:30:59.216Z,3.45
2023-01-13T16:33:43.403Z,3.70
2023-01-13T16:36:20.951Z,3.83
2023-01-13T16:38:56.289Z,3.38
2023-01-13T16:41:49.959Z,3.55
2023-01-13T16:44:25.937Z,3.23
2023-01-13T16:46:58.922Z,3.17
2023-01-13T16:49:30.741Z,3.47
2023-01-13T16:52:22.840Z,3.30
2023-01-13T16:57:46.602Z,3.28
2023-01-13T17:00:21.274Z,3.55
2023-01-13T17:02:52.826Z,3.30
2023-01-13T17:08:19.968Z,3.95
2023-01-13T17:10:53.415Z,3.65
2023-01-13T17:13:25.063Z,3.17
2023-01-13T17:16:25.753Z,3.42
2023-01-13T17:18:58.362Z,3.40
2023-01-13T17:21:29.549Z,3.05
2023-01-13T17:24:01.874Z,3.00
2023-01-13T17:26:43.542Z,3.30
2023-01-13T17:29:23.132Z,3.40
2023-01-13T17:31:55.309Z,3.30
2023-01-13T17:34:27.002Z,3.47
2023-01-13T17:37:01.214Z,3.28
2023-01-13T17:39:33.531Z,3.15
2023-01-13T17:42:09.439Z,3.60
2023-01-13T17:44:44.937Z,3.45
2023-01-13T17:47:21.618Z,3.60
2023-01-13T17:49:52.637Z,3.28
2023-01-13T17:55:14.681Z,3.65
2023-01-13T17:57:46.163Z,3.55
2023-01-13T18:00:18.183Z,2.95
2023-01-13T18:02:50.021Z,3.53
2023-01-13T18:05:21.435Z,3.22
2023-01-13T18:07:55.211Z,3.15
2023-01-13T18:10:26.371Z,3.88
2023-01-13T18:13:17.157Z,3.30
2023-01-13T18:15:48.428Z,4.15
2023-01-13T18:18:19.390Z,4.82
2023-01-13T18:21:08.602Z,3.72
2023-01-13T18:23:57.355Z,4.47
2023-01-13T18:26:48.084Z,3.42
2023-01-13T18:29:20.128Z,4.35
2023-01-13T18:31:51.352Z,3.90
2023-01-13T18:34:44.404Z,3.67
2023-01-13T18:37:19.121Z,4.35
2023-01-13T18:39:52.333Z,3.58
2023-01-13T18:42:41.900Z,3.78
2023-01-13T18:45:14.472Z,4.28
2023-01-13T18:47:45.919Z,5.07
2023-01-13T18:50:18.586Z,4.07
2023-01-13T18:52:49.648Z,3.90
2023-01-13T18:55:21.882Z,3.92
2023-01-13T19:00:39.867Z,3.97
2023-01-13T19:03:11.014Z,3.67
2023-01-13T19:05:42.081Z,4.45
2023-01-13T19:08:13.133Z,4.03
2023-01-13T19:10:44.136Z,4.30
2023-01-13T19:13:17.736Z,3.90
2023-01-13T19:15:48.493Z,3.28
2023-01-13T19:18:26.292Z,3.70
2023-01-13T19:21:02.469Z,3.28
2023-01-13T19:23:33.961Z,3.85
2023-01-13T19:26:10.481Z,3.45
2023-01-13T19:28:42.849Z,3.70
2023-01-13T19:31:37.215Z,3.70
2023-01-13T19:34:08.526Z,3.25
2023-01-13T19:36:39.513Z,3.60
2023-01-13T19:39:11.921Z,3.38
2023-01-13T19:42:00.771Z,3.58
2023-01-13T19:44:49.723Z,3.33
2023-01-13T19:47:21.165Z,3.65
2023-01-13T19:49:52.206Z,3.63
2023-01-13T19:52:23.869Z,3.22
2023-01-13T19:54:55.040Z,3.70
2023-01-13T19:57:26.998Z,3.50
2023-01-13T19:59:57.658Z,3.63
2023-01-13T20:02:33.054Z,3.95
2023-01-13T20:05:07.100Z,3.17
2023-01-13T20:10:08.917Z,4.07
2023-01-13T20:12:59.572Z,3.05
2023-01-13T20:15:30.843Z,3.65
2023-01-13T20:18:02.058Z,3.63
2023-01-13T20:23:18.002Z,4.22
2023-01-13T20:25:50.029Z,3.80
2023-01-13T20:28:25.037Z,3.20
2023-01-13T20:30:57.978Z,3.40
2023-01-13T20:33:30.101Z,3.28
2023-01-13T20:36:01.222Z,3.22
2023-01-13T20:38:38.615Z,3.40
2023-01-13T20:41:28.241Z,3.13
2023-01-13T20:43:59.060Z,3.40
2023-01-13T20:46:30.475Z,3.65
2023-01-13T20:49:01.510Z,3.15
2023-01-13T20:51:32.727Z,3.00
2023-01-13T20:54:03.459Z,3.60
2023-01-13T20:56:36.005Z,2.88
2023-01-13T20:59:07.128Z,4.10
2023-01-13T21:01:39.403Z,3.28
2023-01-13T21:04:10.871Z,3.38
2023-01-13T21:06:43.211Z,3.20
2023-01-13T21:09:14.017Z,3.08
2023-01-13T21:12:20.697Z,3.50
2023-01-13T21:15:15.319Z,2.90
2023-01-13T21:18:06.462Z,3.85
2023-01-13T21:20:39.204Z,3.28
2023-01-13T21:23:12.369Z,3.63
2023-01-13T21:25:43.593Z,3.88
2023-01-13T21:28:35.761Z,3.40
2023-01-13T21:31:08.080Z,3.53
2023-01-13T21:33:38.995Z,3.80
2023-01-13T21:36:13.887Z,3.90
2023-01-13T21:38:45.088Z,3.75
2023-01-13T21:41:16.318Z,3.20
2023-01-13T21:44:05.584Z,3.95
2023-01-13T21:46:54.427Z,3.63
2023-01-13T21:52:56.853Z,3.15
2023-01-13T21:55:30.199Z,3.28
2023-01-13T21:58:10.515Z,3.70
2023-01-13T22:00:45.504Z,3.90
2023-01-13T22:03:17.462Z,3.80
2023-01-13T22:05:54.912Z,4.03
2023-01-13T22:08:25.620Z,3.22
2023-01-13T22:11:19.216Z,3.25
2023-01-13T22:14:11.577Z,4.75
2023-01-13T22:16:50.646Z,3.72
2023-01-13T22:19:21.839Z,4.50
2023-01-13T22:21:52.707Z,4.40
2023-01-13T22:24:23.890Z,3.90
2023-01-13T22:26:55.064Z,3.78
2023-01-13T22:29:25.980Z,5.03
2023-01-13T22:31:58.030Z,4.13
2023-01-13T22:34:28.899Z,4.15
2023-01-13T22:37:00.025Z,3.17
2023-01-13T22:39:31.377Z,4.22
2023-01-13T22:42:02.748Z,3.55
2023-01-13T22:44:34.432Z,3.40
2023-01-13T22:47:25.251Z,3.50
2023-01-13T22:49:55.951Z,3.85
2023-01-13T22:52:28.774Z,4.70
2023-01-13T22:55:02.420Z,3.90
2023-01-13T22:57:56.047Z,3.55
2023-01-13T23:00:26.921Z,4.03
2023-01-13T23:02:58.379Z,3.67
2023-01-13T23:05:30.299Z,3.35
2023-01-13T23:08:01.304Z,4.30
2023-01-13T23:10:32.258Z,4.03
2023-01-13T23:13:03.240Z,3.40
2023-01-13T23:18:22.941Z,3.40
2023-01-13T23:20:53.855Z,3.40
2023-01-13T23:23:26.163Z,3.70
2023-01-13T23:25:58.139Z,3.80
2023-01-13T23:28:29.489Z,4.97
2023-01-13T23:31:23.870Z,3.47
2023-01-13T23:33:54.817Z,3.65
2023-01-13T23:36:28.632Z,4.00
2023-01-13T23:39:01.608Z,3.70
2023-01-13T23:41:32.403Z,3.40
2023-01-13T23:44:04.471Z,3.55
2023-01-13T23:46:36.811Z,4.05
2023-01-13T23:49:27.628Z,4.10
2023-01-13T23:51:59.079Z,3.50
2023-01-13T23:54:30.208Z,3.40
2023-01-13T23:57:02.168Z,3.58
2023-01-13T23:59:33.232Z,3.53
